createdAt,value
2022-11-17T00:02:00.982Z,6.10
2022-11-17T00:04:30.056Z,6.17
2022-11-17T00:06:58.686Z,7.80
2022-11-17T00:09:27.515Z,6.37
2022-11-17T00:12:13.710Z,7.30
2022-11-17T00:14:43.127Z,7.30
2022-11-17T00:17:13.437Z,8.00
2022-11-17T00:19:59.708Z,7.50
2022-11-17T00:22:28.402Z,7.00
2022-11-17T00:24:56.850Z,6.87
2022-11-17T00:27:25.514Z,6.37
2022-11-17T00:29:57.037Z,7.63
2022-11-17T00:32:44.637Z,5.90
2022-11-17T00:35:13.092Z,6.07
2022-11-17T00:38:03.183Z,6.53
2022-11-17T00:40:31.630Z,7.60
2022-11-17T00:43:00.086Z,6.70
2022-11-17T00:45:28.539Z,6.90
2022-11-17T00:47:58.430Z,7.20
2022-11-17T00:50:26.753Z,6.50
2022-11-17T00:52:55.067Z,6.47
2022-11-17T00:55:23.685Z,8.10
2022-11-17T00:57:52.120Z,5.60
2022-11-17T01:00:21.567Z,7.33
2022-11-17T01:02:50.036Z,6.57
2022-11-17T01:05:19.834Z,5.70
2022-11-17T01:07:48.342Z,5.60
2022-11-17T01:10:16.850Z,7.53
2022-11-17T01:12:45.300Z,7.30
2022-11-17T01:15:13.862Z,7.03
2022-11-17T01:17:42.532Z,6.90
2022-11-17T01:20:11.371Z,7.20
2022-11-17T01:22:43.815Z,5.90
2022-11-17T01:25:12.319Z,6.37
2022-11-17T01:27:40.804Z,6.37
2022-11-17T01:30:09.823Z,8.30
2022-11-17T01:32:38.319Z,7.33
2022-11-17T01:35:07.165Z,6.40
2022-11-17T01:37:35.606Z,7.60
2022-11-17T01:40:05.665Z,7.40
2022-11-17T01:42:34.110Z,7.60
2022-11-17T01:45:03.964Z,7.80
2022-11-17T01:47:38.420Z,7.00
2022-11-17T01:50:09.925Z,6.50
2022-11-17T01:52:40.974Z,6.43
2022-11-17T01:55:11.698Z,7.33
2022-11-17T01:57:41.330Z,7.50
2022-11-17T02:00:11.264Z,6.63
2022-11-17T02:02:41.045Z,6.97
2022-11-17T02:05:14.089Z,8.20
2022-11-17T02:07:43.330Z,6.37
2022-11-17T02:10:13.253Z,6.67
2022-11-17T02:12:41.991Z,8.10
2022-11-17T02:15:10.747Z,6.23
2022-11-17T02:17:40.598Z,8.13
2022-11-17T02:20:10.954Z,7.07
2022-11-17T02:22:57.292Z,7.60
2022-11-17T02:25:38.178Z,7.43
2022-11-17T02:28:15.487Z,8.40
2022-11-17T02:30:49.703Z,7.53
2022-11-17T02:33:24.195Z,6.33
2022-11-17T02:35:55.027Z,9.10
2022-11-17T02:38:29.291Z,9.93
2022-11-17T02:41:12.448Z,9.43
2022-11-17T02:44:02.447Z,9.83
2022-11-17T02:46:32.506Z,9.30
2022-11-17T02:49:02.687Z,8.13
2022-11-17T02:51:32.638Z,8.07
2022-11-17T02:54:01.212Z,9.23
2022-11-17T02:56:30.027Z,7.03
2022-11-17T02:59:04.207Z,8.10
2022-11-17T03:01:44.019Z,9.07
2022-11-17T03:04:23.328Z,7.43
2022-11-17T03:06:57.173Z,8.27
2022-11-17T03:09:31.949Z,7.83
2022-11-17T03:12:03.247Z,6.03
2022-11-17T03:14:38.173Z,7.50
2022-11-17T03:17:09.821Z,8.93
2022-11-17T03:19:40.022Z,6.07
2022-11-17T03:22:12.917Z,6.50
2022-11-17T03:24:43.691Z,7.23
2022-11-17T03:27:15.364Z,6.30
2022-11-17T03:29:46.667Z,8.30
2022-11-17T03:32:16.147Z,8.03
2022-11-17T03:34:47.769Z,7.43
2022-11-17T03:37:17.577Z,7.53
2022-11-17T03:39:49.484Z,8.30
2022-11-17T03:42:20.432Z,7.50
2022-11-17T03:44:52.730Z,7.80
2022-11-17T03:47:22.740Z,7.33
2022-11-17T03:49:53.841Z,8.33
2022-11-17T03:52:22.831Z,9.43
2022-11-17T03:54:51.360Z,8.73
2022-11-17T03:57:23.105Z,7.47
2022-11-17T03:59:55.486Z,6.97
2022-11-17T04:02:24.391Z,8.53
2022-11-17T04:05:07.993Z,7.40
2022-11-17T04:07:37.354Z,6.67
2022-11-17T04:10:06.688Z,6.73
2022-11-17T04:12:52.785Z,7.43
2022-11-17T04:15:40.615Z,6.13
2022-11-17T04:18:09.184Z,7.97
2022-11-17T04:20:40.564Z,7.43
2022-11-17T04:23:11.484Z,6.37
2022-11-17T04:25:57.833Z,6.87
2022-11-17T04:28:39.284Z,7.10
2022-11-17T04:31:10.037Z,6.33
2022-11-17T04:33:39.045Z,7.10
2022-11-17T04:36:08.080Z,6.63
2022-11-17T04:38:36.617Z,6.40
2022-11-17T04:41:24.356Z,6.53
2022-11-17T04:43:53.006Z,5.97
2022-11-17T04:46:23.479Z,5.17
2022-11-17T04:48:51.904Z,5.03
2022-11-17T04:51:20.337Z,6.37
2022-11-17T04:53:49.124Z,5.00
2022-11-17T04:56:17.870Z,6.40
2022-11-17T04:58:46.506Z,6.50
2022-11-17T05:01:16.590Z,8.30
2022-11-17T05:03:47.458Z,7.20
2022-11-17T05:06:17.208Z,6.80
2022-11-17T05:08:45.717Z,6.27
2022-11-17T05:11:32.496Z,5.23
2022-11-17T05:14:01.401Z,5.60
2022-11-17T05:16:47.849Z,5.03
2022-11-17T05:19:19.058Z,5.77
2022-11-17T05:21:47.533Z,5.10
2022-11-17T05:24:14.973Z,6.40
2022-11-17T05:26:44.109Z,5.90
2022-11-17T05:29:13.825Z,6.67
2022-11-17T05:31:42.368Z,6.43
2022-11-17T05:34:12.432Z,5.80
2022-11-17T05:36:42.717Z,6.53
2022-11-17T05:39:11.749Z,5.90
2022-11-17T05:41:40.164Z,6.90
2022-11-17T05:44:08.600Z,7.00
2022-11-17T05:46:37.052Z,5.13
2022-11-17T05:49:05.559Z,6.80
2022-11-17T05:51:34.053Z,6.57
2022-11-17T05:54:03.874Z,6.27
2022-11-17T05:56:35.384Z,6.37
2022-11-17T05:59:15.657Z,6.80
2022-11-17T06:01:45.855Z,6.93
2022-11-17T06:04:16.443Z,5.00
2022-11-17T06:06:45.516Z,8.13
2022-11-17T06:09:15.473Z,6.93
2022-11-17T06:11:44.038Z,5.73
2022-11-17T06:14:12.491Z,6.87
2022-11-17T06:16:43.853Z,5.83
2022-11-17T06:19:15.282Z,6.17
2022-11-17T06:22:10.656Z,4.70
2022-11-17T06:24:33.573Z,5.00
2022-11-17T06:27:02.565Z,4.80
2022-11-17T06:29:31.409Z,4.73
2022-11-17T06:32:00.727Z,6.53
2022-11-17T06:34:29.629Z,5.97
2022-11-17T06:36:58.093Z,5.90
2022-11-17T06:39:26.572Z,5.07
2022-11-17T06:41:56.648Z,4.80
2022-11-17T06:44:25.258Z,5.50
2022-11-17T06:46:53.754Z,4.27
2022-11-17T06:49:22.311Z,3.93
2022-11-17T06:51:51.004Z,6.20
2022-11-17T06:54:22.541Z,3.90
2022-11-17T06:56:52.612Z,4.93
2022-11-17T06:59:22.469Z,6.53
2022-11-17T07:01:51.120Z,6.00
2022-11-17T07:04:22.468Z,5.13
2022-11-17T07:06:50.959Z,5.40
2022-11-17T07:09:19.974Z,4.83
2022-11-17T07:11:48.498Z,4.97
2022-11-17T07:14:16.979Z,4.17
2022-11-17T07:16:46.858Z,5.00
2022-11-17T07:19:15.391Z,4.20
2022-11-17T07:21:44.044Z,5.20
2022-11-17T07:24:12.507Z,5.17
2022-11-17T07:26:41.856Z,5.90
2022-11-17T07:29:10.365Z,4.40
2022-11-17T07:31:38.886Z,4.27
2022-11-17T07:34:08.933Z,5.13
2022-11-17T07:36:37.453Z,4.90
2022-11-17T07:39:06.679Z,4.10
2022-11-17T07:41:37.156Z,4.10
2022-11-17T07:44:05.835Z,4.53
2022-11-17T07:46:34.336Z,4.30
2022-11-17T07:49:02.971Z,3.57
2022-11-17T07:51:32.988Z,3.60
2022-11-17T07:54:01.495Z,3.67
2022-11-17T07:56:30.051Z,3.23
2022-11-17T07:58:58.763Z,3.27
2022-11-17T08:01:27.973Z,3.80
2022-11-17T08:03:56.932Z,3.67
2022-11-17T08:06:25.396Z,3.93
2022-11-17T08:08:55.218Z,3.97
2022-11-17T08:11:25.139Z,4.87
2022-11-17T08:13:53.619Z,3.50
2022-11-17T08:16:22.576Z,3.57
2022-11-17T08:18:52.715Z,4.00
2022-11-17T08:21:21.345Z,3.53
2022-11-17T08:23:52.321Z,4.10
2022-11-17T08:26:24.973Z,3.90
2022-11-17T08:28:58.168Z,4.40
2022-11-17T08:31:27.660Z,4.20
2022-11-17T08:33:56.163Z,3.07
2022-11-17T08:36:24.843Z,3.07
2022-11-17T08:38:53.861Z,3.00
2022-11-17T08:41:24.050Z,3.67
2022-11-17T08:43:52.597Z,2.77
2022-11-17T08:46:21.225Z,2.70
2022-11-17T08:48:56.923Z,2.60
2022-11-17T08:51:27.313Z,2.40
2022-11-17T08:53:55.935Z,2.10
2022-11-17T08:56:26.064Z,2.27
2022-11-17T08:58:54.691Z,2.20
2022-11-17T09:01:23.251Z,2.67
2022-11-17T09:03:51.728Z,2.03
2022-11-17T09:06:20.205Z,2.47
2022-11-17T09:08:48.871Z,2.20
2022-11-17T09:11:17.689Z,2.10
2022-11-17T09:13:47.947Z,1.87
2022-11-17T09:16:17.046Z,2.00
2022-11-17T09:18:45.696Z,2.13
2022-11-17T09:21:16.360Z,1.90
2022-11-17T09:23:45.284Z,1.93
2022-11-17T09:26:15.018Z,2.00
2022-11-17T09:28:44.068Z,1.83
2022-11-17T09:31:14.856Z,2.00
2022-11-17T09:33:43.934Z,2.07
2022-11-17T09:36:12.720Z,2.30
2022-11-17T09:38:41.402Z,1.80
2022-11-17T09:41:13.914Z,2.30
2022-11-17T09:43:46.046Z,1.80
2022-11-17T09:46:19.106Z,1.50
2022-11-17T09:48:50.592Z,1.70
2022-11-17T09:51:20.749Z,1.70
2022-11-17T09:53:53.140Z,1.70
2022-11-17T09:56:21.906Z,1.40
2022-11-17T09:58:52.782Z,1.93
2022-11-17T10:01:23.613Z,1.77
2022-11-17T10:03:53.756Z,1.37
2022-11-17T10:06:23.247Z,1.80
2022-11-17T10:08:55.239Z,4.17
2022-11-17T10:11:32.758Z,1.90
2022-11-17T10:14:04.271Z,1.40
2022-11-17T10:16:34.290Z,1.40
2022-11-17T10:19:03.949Z,1.70
2022-11-17T10:21:32.561Z,1.40
2022-11-17T10:24:01.451Z,1.50
2022-11-17T10:26:30.082Z,1.40
2022-11-17T10:29:08.725Z,1.70
2022-11-17T10:31:43.571Z,1.17
2022-11-17T10:34:13.613Z,1.37
2022-11-17T10:36:49.844Z,1.50
2022-11-17T10:39:33.149Z,1.53
2022-11-17T10:42:03.728Z,1.60
2022-11-17T10:44:34.076Z,1.40
2022-11-17T10:47:04.975Z,2.00
2022-11-17T10:49:35.705Z,1.47
2022-11-17T10:52:07.935Z,1.60
2022-11-17T10:54:36.442Z,1.60
2022-11-17T10:57:07.771Z,2.30
2022-11-17T10:59:44.126Z,1.60
2022-11-17T11:02:29.903Z,1.60
2022-11-17T11:05:08.733Z,1.30
2022-11-17T11:07:37.398Z,1.50
2022-11-17T11:10:08.434Z,1.10
2022-11-17T11:12:40.190Z,1.10
2022-11-17T11:15:10.219Z,1.23
2022-11-17T11:17:40.061Z,1.33
2022-11-17T11:20:14.082Z,1.10
2022-11-17T11:22:46.401Z,1.23
2022-11-17T11:25:32.115Z,1.10
2022-11-17T11:28:19.558Z,1.40
2022-11-17T11:30:55.083Z,1.20
2022-11-17T11:33:30.019Z,0.97
2022-11-17T11:36:11.411Z,1.00
2022-11-17T11:38:46.911Z,1.00
2022-11-17T11:41:21.001Z,0.90
2022-11-17T11:43:52.874Z,0.73
2022-11-17T11:46:26.547Z,0.63
2022-11-17T11:48:57.916Z,0.80
2022-11-17T11:51:29.219Z,0.50
2022-11-17T11:53:59.707Z,0.70
2022-11-17T11:56:30.384Z,0.60
2022-11-17T11:59:00.933Z,0.63
2022-11-17T12:01:31.299Z,0.90
2022-11-17T12:04:07.239Z,0.93
2022-11-17T12:06:42.650Z,0.60
2022-11-17T12:09:34.897Z,0.70
2022-11-17T12:12:09.426Z,0.60
2022-11-17T12:14:39.011Z,0.70
2022-11-17T12:17:09.265Z,0.50
2022-11-17T12:19:55.342Z,0.50
2022-11-17T12:22:42.952Z,0.80
2022-11-17T12:25:17.248Z,0.83
2022-11-17T12:27:47.300Z,0.70
2022-11-17T12:30:30.624Z,0.70
2022-11-17T12:32:59.415Z,0.80
2022-11-17T12:35:30.196Z,0.70
2022-11-17T12:38:22.546Z,0.80
2022-11-17T12:40:51.481Z,0.97
2022-11-17T12:43:23.940Z,0.90
2022-11-17T12:46:06.029Z,0.70
2022-11-17T12:48:35.818Z,0.70
2022-11-17T12:51:10.128Z,0.77
2022-11-17T12:53:50.575Z,0.83
2022-11-17T12:56:29.047Z,0.80
2022-11-17T12:59:02.195Z,0.90
2022-11-17T13:01:37.707Z,0.93
2022-11-17T13:04:11.399Z,0.80
2022-11-17T13:06:59.409Z,1.00
2022-11-17T13:09:28.475Z,0.80
2022-11-17T13:12:00.811Z,0.70
2022-11-17T13:14:29.323Z,0.70
2022-11-17T13:16:58.687Z,1.00
2022-11-17T13:19:32.920Z,1.00
2022-11-17T13:22:03.767Z,1.13
2022-11-17T13:24:33.863Z,0.87
2022-11-17T13:27:02.872Z,0.80
2022-11-17T13:29:31.859Z,1.00
2022-11-17T13:32:16.999Z,1.03
2022-11-17T13:34:49.440Z,1.23
2022-11-17T13:37:20.498Z,1.00
2022-11-17T13:39:59.259Z,1.30
2022-11-17T13:42:28.771Z,1.10
2022-11-17T13:44:58.320Z,1.20
2022-11-17T13:47:42.175Z,0.90
2022-11-17T13:50:34.473Z,1.00
2022-11-17T13:53:05.088Z,1.00
2022-11-17T13:55:34.049Z,1.27
2022-11-17T13:58:03.155Z,1.20
2022-11-17T14:00:32.238Z,1.17
2022-11-17T14:03:03.277Z,1.30
2022-11-17T14:05:32.693Z,1.20
2022-11-17T14:08:12.511Z,1.20
2022-11-17T14:10:42.876Z,1.10
2022-11-17T14:13:23.084Z,1.33
2022-11-17T14:16:09.227Z,1.20
2022-11-17T14:18:38.205Z,1.13
2022-11-17T14:21:08.287Z,1.20
2022-11-17T14:23:36.814Z,1.40
2022-11-17T14:26:07.116Z,2.30
2022-11-17T14:28:35.563Z,1.60
2022-11-17T14:31:04.029Z,1.20
2022-11-17T14:33:32.516Z,1.10
2022-11-17T14:36:01.592Z,1.60
2022-11-17T14:38:30.288Z,1.80
2022-11-17T14:40:58.820Z,2.67
2022-11-17T14:43:28.884Z,2.10
2022-11-17T14:45:57.608Z,2.37
2022-11-17T14:48:26.564Z,1.93
2022-11-17T14:50:58.119Z,1.47
2022-11-17T14:53:26.740Z,1.70
2022-11-17T14:55:55.298Z,1.97
2022-11-17T14:58:23.829Z,1.10
2022-11-17T15:00:53.788Z,1.30
2022-11-17T15:03:22.631Z,1.80
2022-11-17T15:05:51.463Z,1.83
2022-11-17T15:08:20.201Z,2.03
2022-11-17T15:10:48.925Z,1.80
2022-11-17T15:13:17.545Z,1.80
2022-11-17T15:15:47.200Z,1.60
2022-11-17T15:18:17.117Z,1.70
2022-11-17T15:20:45.723Z,2.30
2022-11-17T15:23:14.170Z,2.53
2022-11-17T15:25:42.645Z,3.40
2022-11-17T15:28:15.042Z,3.87
2022-11-17T15:30:45.446Z,3.20
2022-11-17T15:33:13.916Z,2.80
2022-11-17T15:35:43.899Z,2.50
2022-11-17T15:38:12.326Z,2.47
2022-11-17T15:40:40.775Z,2.53
2022-11-17T15:43:09.546Z,2.50
2022-11-17T15:45:38.036Z,2.30
2022-11-17T15:48:06.734Z,2.10
2022-11-17T15:50:35.226Z,1.90
2022-11-17T15:53:05.288Z,2.17
2022-11-17T15:55:35.584Z,2.07
2022-11-17T15:58:04.189Z,2.33
2022-11-17T16:00:34.962Z,2.37
2022-11-17T16:03:03.603Z,3.20
2022-11-17T16:05:31.993Z,2.33
2022-11-17T16:08:03.596Z,2.70
2022-11-17T16:10:33.584Z,2.20
2022-11-17T16:13:02.427Z,2.47
2022-11-17T16:15:31.019Z,2.60
2022-11-17T16:17:59.807Z,2.87
2022-11-17T16:20:28.315Z,2.60
2022-11-17T16:22:58.781Z,2.70
2022-11-17T16:25:27.183Z,2.90
2022-11-17T16:27:57.233Z,3.83
2022-11-17T16:30:32.724Z,3.37
2022-11-17T16:33:04.056Z,2.90
2022-11-17T16:35:35.102Z,3.10
2022-11-17T16:38:06.005Z,4.03
2022-11-17T16:40:35.547Z,3.33
2022-11-17T16:43:05.374Z,3.50
2022-11-17T16:45:39.197Z,3.70
2022-11-17T16:48:10.649Z,3.47
2022-11-17T16:50:39.386Z,2.97
2022-11-17T16:53:08.032Z,3.47
2022-11-17T16:55:36.720Z,3.30
2022-11-17T16:58:07.161Z,3.30
2022-11-17T17:00:36.114Z,3.07
2022-11-17T17:03:04.789Z,3.57
2022-11-17T17:05:36.142Z,2.90
2022-11-17T17:08:04.628Z,3.43
2022-11-17T17:10:34.525Z,3.13
2022-11-17T17:13:03.016Z,3.43
2022-11-17T17:15:33.041Z,3.20
2022-11-17T17:18:01.681Z,2.87
2022-11-17T17:20:30.096Z,3.57
2022-11-17T17:23:02.954Z,3.33
2022-11-17T17:25:32.601Z,3.37
2022-11-17T17:28:01.242Z,3.53
2022-11-17T17:30:29.648Z,3.00
2022-11-17T17:32:59.503Z,3.20
2022-11-17T17:35:27.948Z,3.37
2022-11-17T17:37:56.735Z,3.10
2022-11-17T17:40:25.365Z,2.90
2022-11-17T17:42:53.968Z,2.60
2022-11-17T17:45:22.476Z,3.70
2022-11-17T17:47:51.112Z,3.57
2022-11-17T17:50:21.020Z,3.80
2022-11-17T17:52:49.749Z,3.67
2022-11-17T17:55:19.279Z,3.87
2022-11-17T17:57:47.783Z,3.50
2022-11-17T18:00:19.269Z,3.60
2022-11-17T18:02:47.720Z,3.70
2022-11-17T18:05:17.122Z,3.67
2022-11-17T18:07:47.044Z,3.30
2022-11-17T18:10:15.516Z,4.00
2022-11-17T18:12:43.975Z,3.90
2022-11-17T18:15:12.978Z,3.60
2022-11-17T18:17:41.696Z,5.10
2022-11-17T18:20:11.349Z,5.90
2022-11-17T18:22:39.904Z,5.63
2022-11-17T18:25:15.125Z,5.10
2022-11-17T18:27:46.245Z,4.97
2022-11-17T18:30:14.923Z,4.67
2022-11-17T18:32:43.363Z,3.97
2022-11-17T18:35:12.346Z,4.50
2022-11-17T18:37:40.843Z,4.60
2022-11-17T18:40:12.802Z,4.10
2022-11-17T18:42:41.236Z,4.17
2022-11-17T18:45:10.520Z,4.00
2022-11-17T18:47:39.264Z,4.40
2022-11-17T18:50:09.018Z,4.63
2022-11-17T18:52:37.823Z,4.77
2022-11-17T18:55:06.533Z,4.90
2022-11-17T18:57:39.555Z,4.80
2022-11-17T19:00:11.008Z,4.40
2022-11-17T19:02:39.475Z,4.80
2022-11-17T19:05:08.346Z,5.13
2022-11-17T19:07:36.939Z,4.70
2022-11-17T19:10:05.600Z,6.10
2022-11-17T19:12:34.153Z,7.70
2022-11-17T19:15:03.943Z,6.73
2022-11-17T19:17:33.326Z,6.83
2022-11-17T19:20:02.283Z,6.43
2022-11-17T19:22:35.335Z,6.63
2022-11-17T19:25:06.929Z,5.80
2022-11-17T19:27:35.614Z,5.20
2022-11-17T19:30:05.795Z,4.93
2022-11-17T19:32:34.295Z,5.63
2022-11-17T19:35:12.947Z,4.80
2022-11-17T19:37:44.311Z,4.53
2022-11-17T19:40:13.058Z,4.40
2022-11-17T19:42:41.943Z,4.93
2022-11-17T19:45:12.012Z,4.50
2022-11-17T19:47:40.582Z,4.33
2022-11-17T19:50:09.456Z,4.47
2022-11-17T19:52:38.023Z,4.50
2022-11-17T19:55:06.773Z,4.10
2022-11-17T19:57:35.391Z,4.23
2022-11-17T20:00:04.178Z,4.33
2022-11-17T20:02:41.810Z,4.20
2022-11-17T20:05:13.477Z,4.27
2022-11-17T20:07:43.621Z,4.40
2022-11-17T20:10:12.629Z,5.07
2022-11-17T20:12:43.366Z,5.40
2022-11-17T20:15:32.941Z,5.00
2022-11-17T20:18:03.569Z,5.80
2022-11-17T20:20:32.289Z,5.30
2022-11-17T20:23:00.773Z,5.23
2022-11-17T20:25:31.803Z,3.80
2022-11-17T20:28:00.475Z,2.80
2022-11-17T20:30:29.227Z,2.07
2022-11-17T20:32:57.738Z,1.53
2022-11-17T20:35:27.718Z,1.60
2022-11-17T20:37:56.226Z,1.60
2022-11-17T20:40:24.680Z,1.57
2022-11-17T20:42:54.369Z,1.80
2022-11-17T20:45:22.845Z,2.10
2022-11-17T20:47:51.429Z,1.87
2022-11-17T20:50:20.030Z,1.80
2022-11-17T20:52:50.251Z,1.60
2022-11-17T20:55:19.212Z,1.30
2022-11-17T20:57:47.805Z,1.77
2022-11-17T21:00:16.621Z,1.60
2022-11-17T21:02:45.344Z,2.07
2022-11-17T21:05:13.818Z,2.10
2022-11-17T21:07:42.825Z,4.17
2022-11-17T21:10:12.867Z,2.70
2022-11-17T21:12:41.262Z,2.63
2022-11-17T21:15:10.073Z,3.30
2022-11-17T21:17:56.147Z,3.47
2022-11-17T21:20:28.118Z,2.20
2022-11-17T21:22:56.641Z,2.13
2022-11-17T21:25:26.479Z,2.90
2022-11-17T21:27:55.376Z,2.93
2022-11-17T21:30:24.929Z,2.20
2022-11-17T21:32:53.373Z,2.37
2022-11-17T21:35:22.195Z,1.73
2022-11-17T21:37:50.647Z,2.07
2022-11-17T21:40:19.735Z,1.60
2022-11-17T21:42:49.548Z,2.13
2022-11-17T21:45:18.059Z,1.80
2022-11-17T21:47:46.527Z,1.53
2022-11-17T21:50:14.978Z,1.30
2022-11-17T21:52:45.315Z,1.73
2022-11-17T21:55:13.729Z,1.50
2022-11-17T21:57:42.199Z,1.27
2022-11-17T22:00:12.971Z,1.33
2022-11-17T22:02:41.408Z,1.20
2022-11-17T22:05:10.227Z,1.87
2022-11-17T22:07:38.706Z,4.10
2022-11-17T22:10:07.694Z,3.73
2022-11-17T22:12:36.107Z,3.07
2022-11-17T22:15:10.227Z,3.20
2022-11-17T22:17:42.412Z,4.00
2022-11-17T22:20:11.321Z,3.17
2022-11-17T22:22:39.893Z,2.90
2022-11-17T22:25:37.777Z,1.70
2022-11-17T22:27:58.303Z,1.70
2022-11-17T22:30:26.936Z,1.60
2022-11-17T22:32:56.720Z,1.40
2022-11-17T22:35:25.140Z,1.33
2022-11-17T22:37:53.737Z,1.30
2022-11-17T22:40:22.297Z,1.30
2022-11-17T22:42:53.981Z,1.03
2022-11-17T22:45:22.456Z,1.00
2022-11-17T22:47:50.932Z,0.90
2022-11-17T22:50:20.764Z,0.80
2022-11-17T22:52:49.605Z,0.80
2022-11-17T22:55:18.342Z,1.13
2022-11-17T22:57:46.809Z,0.80
2022-11-17T23:00:15.781Z,0.97
2022-11-17T23:02:44.190Z,0.83
2022-11-17T23:05:12.611Z,0.90
2022-11-17T23:07:42.692Z,0.90
2022-11-17T23:10:11.288Z,1.00
2022-11-17T23:12:39.794Z,1.10
2022-11-17T23:15:09.217Z,1.00
2022-11-17T23:17:37.941Z,1.17
2022-11-17T23:20:06.786Z,1.20
2022-11-17T23:22:35.925Z,0.90
2022-11-17T23:25:05.923Z,1.10
2022-11-17T23:27:34.340Z,1.30
2022-11-17T23:30:02.831Z,1.17
2022-11-17T23:32:31.329Z,1.10
2022-11-17T23:34:59.744Z,1.00
2022-11-17T23:37:29.613Z,1.20
2022-11-17T23:39:58.027Z,1.23
2022-11-17T23:42:32.261Z,1.10
2022-11-17T23:45:01.151Z,1.13
2022-11-17T23:47:29.601Z,1.17
2022-11-17T23:49:57.989Z,0.90
2022-11-17T23:52:26.567Z,1.10
2022-11-17T23:54:55.030Z,1.03
2022-11-17T23:57:23.454Z,0.93
2022-11-17T23:59:53.228Z,1.00
